createdAt,value
2022-11-04T00:02:05.800Z,9.48
2022-11-04T00:04:33.927Z,9.40
2022-11-04T00:07:23.722Z,8.98
2022-11-04T00:09:51.654Z,10.25
2022-11-04T00:12:27.820Z,9.85
2022-11-04T00:15:15.840Z,10.38
2022-11-04T00:17:42.996Z,5.90
2022-11-04T00:20:29.365Z,10.57
2022-11-04T00:23:16.467Z,7.18
2022-11-04T00:26:01.679Z,10.07
2022-11-04T00:28:44.549Z,7.38
2022-11-04T00:31:30.265Z,7.82
2022-11-04T00:33:59.817Z,5.68
2022-11-04T00:36:27.968Z,11.13
2022-11-04T00:38:57.344Z,10.48
2022-11-04T00:41:28.894Z,10.38
2022-11-04T00:43:58.103Z,14.68
2022-11-04T00:46:26.969Z,13.80
2022-11-04T00:48:55.153Z,10.98
2022-11-04T00:51:23.277Z,10.30
2022-11-04T00:53:51.752Z,10.10
2022-11-04T00:56:21.390Z,10.00
2022-11-04T00:58:50.331Z,5.38
2022-11-04T01:01:19.951Z,6.15
2022-11-04T01:03:49.852Z,5.68
2022-11-04T01:06:17.951Z,3.05
2022-11-04T01:08:46.193Z,4.80
2022-11-04T01:11:14.863Z,1.83
2022-11-04T01:13:44.277Z,2.72
2022-11-04T01:16:13.761Z,2.90
2022-11-04T01:18:42.125Z,1.52
2022-11-04T01:21:13.129Z,2.53
2022-11-04T01:23:43.076Z,2.00
2022-11-04T01:26:14.344Z,2.58
2022-11-04T01:28:43.971Z,1.50
2022-11-04T01:31:14.273Z,2.78
2022-11-04T01:33:42.223Z,2.42
2022-11-04T01:36:12.286Z,2.35
2022-11-04T01:38:40.840Z,2.17
2022-11-04T01:41:12.912Z,1.80
2022-11-04T01:43:47.432Z,2.60
2022-11-04T01:46:24.252Z,3.35
2022-11-04T01:48:53.514Z,1.67
2022-11-04T01:51:23.209Z,1.17
2022-11-04T01:53:56.197Z,3.33
2022-11-04T01:56:27.148Z,2.22
2022-11-04T01:59:03.672Z,2.78
2022-11-04T02:01:31.770Z,2.25
2022-11-04T02:04:22.132Z,2.33
2022-11-04T02:06:52.046Z,2.40
2022-11-04T02:09:22.195Z,2.83
2022-11-04T02:12:07.388Z,3.53
2022-11-04T02:14:37.677Z,3.50
2022-11-04T02:17:20.293Z,3.92
2022-11-04T02:20:01.421Z,6.63
2022-11-04T02:23:12.111Z,4.65
2022-11-04T02:26:08.431Z,6.65
2022-11-04T02:29:05.642Z,4.32
2022-11-04T02:31:41.870Z,5.13
2022-11-04T02:34:16.863Z,8.73
2022-11-04T02:36:49.267Z,6.57
2022-11-04T02:39:29.824Z,10.38
2022-11-04T02:42:02.106Z,5.53
2022-11-04T02:44:38.528Z,13.63
2022-11-04T02:47:09.517Z,9.25
2022-11-04T02:49:42.089Z,7.85
2022-11-04T02:52:13.830Z,6.80
2022-11-04T02:54:48.535Z,10.15
2022-11-04T02:57:20.740Z,6.85
2022-11-04T02:59:55.143Z,8.15
2022-11-04T03:02:29.008Z,8.23
2022-11-04T03:04:59.278Z,9.20
2022-11-04T03:07:30.659Z,12.05
2022-11-04T03:10:03.882Z,10.73
2022-11-04T03:12:38.514Z,13.23
2022-11-04T03:15:12.234Z,15.38
2022-11-04T03:17:48.110Z,20.23
2022-11-04T03:20:20.641Z,20.05
2022-11-04T03:22:48.675Z,14.65
2022-11-04T03:25:17.481Z,18.77
2022-11-04T03:27:50.809Z,20.83
2022-11-04T03:30:21.778Z,22.08
2022-11-04T03:32:59.114Z,23.20
2022-11-04T03:35:28.101Z,20.00
2022-11-04T03:37:56.365Z,27.10
2022-11-04T03:40:24.671Z,24.67
2022-11-04T03:42:57.201Z,25.92
2022-11-04T03:45:27.638Z,23.63
2022-11-04T03:47:57.737Z,25.90
2022-11-04T03:50:29.409Z,25.08
2022-11-04T03:52:59.150Z,26.88
2022-11-04T03:55:38.628Z,25.92
2022-11-04T03:58:12.550Z,32.17
2022-11-04T04:00:49.627Z,35.22
2022-11-04T04:03:22.164Z,36.05
2022-11-04T04:05:55.035Z,35.75
2022-11-04T04:08:32.104Z,37.42
2022-11-04T04:11:08.261Z,33.60
2022-11-04T04:13:43.107Z,40.38
2022-11-04T04:16:20.033Z,33.83
2022-11-04T04:18:55.800Z,32.65
2022-11-04T04:21:30.904Z,38.33
2022-11-04T04:24:19.311Z,36.20
2022-11-04T04:27:07.340Z,31.83
2022-11-04T04:29:37.683Z,35.65
2022-11-04T04:32:08.463Z,34.20
2022-11-04T04:34:36.955Z,33.13
2022-11-04T04:37:09.099Z,32.97
2022-11-04T04:39:58.866Z,26.25
2022-11-04T04:42:44.755Z,24.73
2022-11-04T04:45:22.276Z,26.42
2022-11-04T04:47:52.981Z,24.95
2022-11-04T04:50:22.722Z,21.13
2022-11-04T04:52:54.367Z,19.70
2022-11-04T04:55:22.409Z,19.52
2022-11-04T04:57:50.343Z,20.40
2022-11-04T05:00:21.369Z,15.95
2022-11-04T05:02:51.429Z,20.95
2022-11-04T05:05:19.987Z,15.73
2022-11-04T05:07:48.037Z,17.52
2022-11-04T05:10:17.731Z,18.55
2022-11-04T05:13:03.790Z,21.33
2022-11-04T05:15:32.730Z,15.55
2022-11-04T05:18:03.529Z,20.20
2022-11-04T05:20:34.433Z,13.75
2022-11-04T05:23:02.796Z,13.95
2022-11-04T05:25:31.182Z,14.80
2022-11-04T05:28:01.116Z,18.30
2022-11-04T05:30:29.014Z,13.65
2022-11-04T05:33:00.037Z,14.20
2022-11-04T05:35:33.271Z,11.45
2022-11-04T05:38:01.348Z,14.13
2022-11-04T05:40:29.372Z,13.73
2022-11-04T05:42:59.360Z,12.90
2022-11-04T05:45:27.367Z,15.45
2022-11-04T05:47:59.876Z,15.23
2022-11-04T05:50:28.449Z,18.17
2022-11-04T05:52:59.128Z,22.05
2022-11-04T05:55:27.204Z,14.65
2022-11-04T05:57:55.421Z,17.23
2022-11-04T06:00:23.559Z,14.88
2022-11-04T06:02:51.763Z,18.80
2022-11-04T06:05:19.765Z,17.73
2022-11-04T06:07:47.790Z,18.95
2022-11-04T06:10:17.543Z,16.90
2022-11-04T06:12:45.518Z,15.85
2022-11-04T06:15:13.435Z,12.77
2022-11-04T06:17:41.366Z,26.02
2022-11-04T06:20:10.857Z,15.25
2022-11-04T06:22:39.020Z,11.13
2022-11-04T06:25:07.322Z,17.30
2022-11-04T06:27:36.587Z,16.90
2022-11-04T06:30:05.320Z,13.50
2022-11-04T06:32:33.171Z,12.18
2022-11-04T06:35:01.223Z,11.18
2022-11-04T06:37:29.768Z,13.52
2022-11-04T06:39:57.661Z,11.45
2022-11-04T06:42:26.892Z,17.67
2022-11-04T06:44:56.152Z,10.18
2022-11-04T06:47:25.087Z,11.77
2022-11-04T06:49:53.222Z,14.30
2022-11-04T06:52:21.091Z,11.77
2022-11-04T06:54:49.006Z,13.18
2022-11-04T06:57:16.955Z,11.57
2022-11-04T06:59:44.947Z,7.50
2022-11-04T07:02:14.348Z,14.60
2022-11-04T07:04:45.751Z,9.43
2022-11-04T07:07:14.367Z,12.75
2022-11-04T07:09:42.459Z,10.60
2022-11-04T07:12:10.391Z,13.13
2022-11-04T07:14:38.842Z,8.93
2022-11-04T07:17:07.878Z,9.60
2022-11-04T07:19:38.748Z,12.75
2022-11-04T07:22:10.365Z,9.30
2022-11-04T07:24:39.619Z,14.40
2022-11-04T07:27:12.274Z,8.02
2022-11-04T07:29:42.185Z,8.35
2022-11-04T07:32:11.827Z,11.00
2022-11-04T07:34:50.984Z,12.88
2022-11-04T07:37:21.698Z,13.13
2022-11-04T07:39:59.256Z,12.43
2022-11-04T07:42:27.175Z,12.93
2022-11-04T07:44:55.049Z,12.15
2022-11-04T07:47:23.148Z,10.10
2022-11-04T07:49:52.782Z,17.27
2022-11-04T07:52:20.692Z,17.75
2022-11-04T07:54:48.563Z,11.73
2022-11-04T07:57:16.452Z,9.15
2022-11-04T07:59:44.313Z,12.07
2022-11-04T08:02:13.448Z,14.48
2022-11-04T08:04:41.482Z,17.70
2022-11-04T08:07:11.014Z,13.07
2022-11-04T08:09:39.253Z,9.40
2022-11-04T08:12:07.694Z,16.33
2022-11-04T08:14:35.614Z,14.93
2022-11-04T08:17:03.837Z,10.88
2022-11-04T08:19:31.818Z,16.70
2022-11-04T08:21:59.829Z,11.00
2022-11-04T08:24:29.903Z,15.07
2022-11-04T08:26:58.144Z,13.75
2022-11-04T08:29:26.151Z,10.55
2022-11-04T08:31:54.449Z,21.33
2022-11-04T08:34:22.305Z,17.27
2022-11-04T08:36:50.206Z,11.82
2022-11-04T08:39:18.232Z,16.38
2022-11-04T08:41:48.515Z,14.23
2022-11-04T08:44:16.779Z,16.38
2022-11-04T08:46:46.209Z,8.85
2022-11-04T08:49:19.594Z,9.63
2022-11-04T08:51:56.423Z,9.65
2022-11-04T08:54:24.474Z,12.18
2022-11-04T08:56:54.536Z,13.95
2022-11-04T08:59:22.993Z,12.52
2022-11-04T09:01:50.920Z,14.20
2022-11-04T09:04:19.698Z,12.13
2022-11-04T09:06:48.669Z,9.85
2022-11-04T09:09:18.088Z,9.68
2022-11-04T09:11:46.933Z,14.55
2022-11-04T09:14:17.892Z,13.32
2022-11-04T09:16:46.011Z,14.55
2022-11-04T09:19:13.863Z,11.95
2022-11-04T09:21:41.837Z,12.98
2022-11-04T09:24:11.608Z,12.38
2022-11-04T09:26:39.904Z,14.55
2022-11-04T09:29:09.765Z,12.60
2022-11-04T09:31:39.940Z,23.00
2022-11-04T09:34:07.800Z,15.27
2022-11-04T09:36:35.676Z,17.48
2022-11-04T09:39:03.626Z,20.83
2022-11-04T09:41:43.190Z,19.00
2022-11-04T09:44:23.099Z,22.60
2022-11-04T09:46:55.957Z,12.85
2022-11-04T09:49:26.180Z,17.55
2022-11-04T09:51:56.548Z,17.23
2022-11-04T09:54:26.507Z,15.88
2022-11-04T09:56:56.514Z,17.70
2022-11-04T09:59:28.310Z,16.40
2022-11-04T10:02:27.224Z,20.52
2022-11-04T10:05:04.815Z,14.35
2022-11-04T10:07:59.895Z,12.50
2022-11-04T10:10:35.495Z,16.25
2022-11-04T10:13:16.602Z,18.42
2022-11-04T10:16:25.606Z,26.38
2022-11-04T10:19:07.945Z,28.48
2022-11-04T10:21:46.231Z,28.42
2022-11-04T10:24:20.584Z,23.25
2022-11-04T10:26:59.034Z,30.13
2022-11-04T10:29:32.119Z,24.20
2022-11-04T10:32:03.045Z,22.80
2022-11-04T10:34:38.288Z,22.30
2022-11-04T10:37:10.613Z,15.60
2022-11-04T10:39:44.264Z,23.60
2022-11-04T10:42:14.615Z,23.48
2022-11-04T10:44:42.857Z,26.38
2022-11-04T10:47:22.853Z,20.90
2022-11-04T10:50:27.835Z,27.80
2022-11-04T10:52:48.365Z,20.10
2022-11-04T10:55:30.046Z,21.45
2022-11-04T10:57:59.438Z,20.35
2022-11-04T11:00:38.294Z,20.20
2022-11-04T11:03:25.021Z,24.58
2022-11-04T11:05:55.884Z,15.85
2022-11-04T11:08:32.643Z,24.73
2022-11-04T11:11:00.922Z,18.75
2022-11-04T11:13:36.710Z,20.23
2022-11-04T11:16:11.822Z,23.05
2022-11-04T11:18:41.707Z,19.83
2022-11-04T11:21:13.576Z,25.40
2022-11-04T11:23:43.843Z,17.23
2022-11-04T11:26:15.376Z,20.20
2022-11-04T11:28:53.123Z,18.77
2022-11-04T11:31:26.896Z,17.35
2022-11-04T11:33:57.996Z,21.83
2022-11-04T11:36:29.505Z,19.50
2022-11-04T11:39:05.957Z,19.67
2022-11-04T11:41:41.007Z,17.27
2022-11-04T11:44:25.493Z,31.95
2022-11-04T11:46:56.183Z,20.00
2022-11-04T11:49:28.965Z,20.35
2022-11-04T11:52:19.610Z,18.90
2022-11-04T11:54:49.910Z,21.30
2022-11-04T11:57:33.039Z,18.20
2022-11-04T12:03:02.598Z,21.60
2022-11-04T12:11:42.737Z,24.23
2022-11-04T12:14:18.174Z,19.92
2022-11-04T12:16:57.501Z,22.65
2022-11-04T12:19:41.542Z,21.00
2022-11-04T12:22:21.123Z,20.65
2022-11-04T12:24:59.934Z,22.88
2022-11-04T12:27:35.483Z,19.17
2022-11-04T12:30:08.718Z,22.33
2022-11-04T12:32:45.310Z,23.13
2022-11-04T12:35:30.538Z,19.50
2022-11-04T12:38:20.674Z,18.80
2022-11-04T12:43:57.628Z,20.50
2022-11-04T12:46:33.694Z,21.25
2022-11-04T12:49:32.340Z,25.73
2022-11-04T12:52:08.026Z,21.48
2022-11-04T12:54:51.893Z,21.20
2022-11-04T12:57:28.701Z,18.98
2022-11-04T13:00:10.085Z,26.65
2022-11-04T13:02:43.343Z,19.05
2022-11-04T13:05:30.241Z,27.93
2022-11-04T13:08:08.592Z,21.85
2022-11-04T13:10:43.638Z,21.30
2022-11-04T13:13:16.546Z,22.77
2022-11-04T13:15:48.322Z,21.42
2022-11-04T13:18:20.458Z,22.50
2022-11-04T13:20:56.862Z,24.90
2022-11-04T13:23:33.857Z,20.88
2022-11-04T13:26:03.662Z,23.92
2022-11-04T13:28:33.553Z,23.20
2022-11-04T13:31:07.065Z,16.92
2022-11-04T13:33:48.803Z,19.83
2022-11-04T13:36:28.588Z,23.23
2022-11-04T13:39:01.927Z,16.67
2022-11-04T13:41:51.113Z,20.25
2022-11-04T13:44:25.970Z,19.20
2022-11-04T13:46:58.521Z,20.10
2022-11-04T13:49:32.561Z,19.45
2022-11-04T13:52:08.209Z,20.25
2022-11-04T13:54:41.779Z,18.70
2022-11-04T13:57:13.648Z,19.50
2022-11-04T13:59:46.461Z,19.95
2022-11-04T14:02:43.583Z,16.10
2022-11-04T14:05:56.520Z,18.42
2022-11-04T14:08:24.722Z,21.95
2022-11-04T14:11:12.012Z,17.33
2022-11-04T14:14:10.995Z,16.42
2022-11-04T14:16:47.461Z,9.55
2022-11-04T14:19:57.945Z,11.43
2022-11-04T14:22:36.102Z,4.75
2022-11-04T14:25:21.397Z,6.00
2022-11-04T14:27:50.935Z,9.13
2022-11-04T14:30:36.251Z,2.03
2022-11-04T14:33:09.679Z,2.45
2022-11-04T14:35:38.154Z,4.40
2022-11-04T14:38:21.387Z,4.18
2022-11-04T14:40:53.954Z,3.50
2022-11-04T14:43:36.081Z,4.07
2022-11-04T14:46:04.429Z,6.65
2022-11-04T14:48:34.255Z,6.40
2022-11-04T14:51:05.233Z,6.90
2022-11-04T14:53:35.043Z,4.50
2022-11-04T14:56:08.238Z,48.45
2022-11-04T14:58:37.666Z,7.90
2022-11-04T15:01:07.784Z,14.32
2022-11-04T15:04:10.652Z,10.85
2022-11-04T15:06:40.593Z,13.27
2022-11-04T15:09:23.722Z,13.45
2022-11-04T15:12:10.752Z,11.57
2022-11-04T15:14:39.108Z,8.00
2022-11-04T15:17:07.470Z,7.28
2022-11-04T15:19:37.653Z,8.73
2022-11-04T15:22:07.316Z,7.30
2022-11-04T15:24:36.690Z,5.35
2022-11-04T15:27:07.408Z,4.57
2022-11-04T15:29:35.309Z,3.58
2022-11-04T15:32:05.926Z,9.43
2022-11-04T15:34:37.250Z,8.68
2022-11-04T15:37:07.731Z,6.60
2022-11-04T15:39:38.833Z,7.28
2022-11-04T15:42:27.495Z,18.13
2022-11-04T15:44:57.209Z,9.32
2022-11-04T15:47:27.226Z,9.65
2022-11-04T15:50:05.245Z,6.40
2022-11-04T15:52:33.587Z,7.55
2022-11-04T15:55:03.404Z,6.97
2022-11-04T15:57:34.504Z,11.27
2022-11-04T16:00:24.485Z,8.05
2022-11-04T16:02:56.367Z,5.00
2022-11-04T16:05:31.433Z,6.30
2022-11-04T16:08:20.136Z,6.65
2022-11-04T16:10:49.351Z,4.57
2022-11-04T16:13:25.822Z,3.63
2022-11-04T16:16:09.276Z,7.43
2022-11-04T16:18:40.089Z,6.10
2022-11-04T16:21:14.911Z,7.70
2022-11-04T16:23:46.816Z,8.77
2022-11-04T16:26:14.921Z,6.53
2022-11-04T16:28:44.129Z,9.98
2022-11-04T16:31:27.725Z,8.98
2022-11-04T16:33:56.469Z,8.30
2022-11-04T16:36:29.759Z,9.07
2022-11-04T16:39:04.855Z,9.25
2022-11-04T16:41:37.547Z,11.23
2022-11-04T16:44:06.406Z,13.75
2022-11-04T16:46:35.754Z,20.38
2022-11-04T16:49:03.655Z,19.23
2022-11-04T16:51:35.297Z,13.80
2022-11-04T16:54:04.758Z,11.95
2022-11-04T16:56:35.744Z,7.03
2022-11-04T16:59:03.658Z,7.00
2022-11-04T17:01:33.874Z,4.35
2022-11-04T17:04:04.357Z,9.35
2022-11-04T17:06:34.580Z,7.30
2022-11-04T17:09:03.095Z,10.02
2022-11-04T17:11:31.514Z,8.23
2022-11-04T17:13:59.684Z,5.82
2022-11-04T17:16:27.735Z,6.32
2022-11-04T17:18:55.954Z,6.95
2022-11-04T17:21:26.328Z,12.32
2022-11-04T17:23:57.090Z,12.45
2022-11-04T17:26:24.979Z,10.18
2022-11-04T17:28:53.072Z,12.25
2022-11-04T17:31:21.793Z,10.90
2022-11-04T17:33:50.399Z,9.45
2022-11-04T17:36:20.151Z,10.82
2022-11-04T17:38:49.629Z,9.77
2022-11-04T17:41:36.712Z,14.10
2022-11-04T17:44:05.099Z,11.13
2022-11-04T17:46:35.112Z,14.07
2022-11-04T17:49:08.929Z,12.93
2022-11-04T17:51:37.464Z,11.60
2022-11-04T17:54:05.989Z,12.02
2022-11-04T17:56:35.666Z,9.95
2022-11-04T17:59:05.404Z,7.28
2022-11-04T18:01:35.901Z,7.07
2022-11-04T18:04:04.557Z,8.52
2022-11-04T18:06:34.526Z,10.68
2022-11-04T18:09:21.183Z,6.47
2022-11-04T18:12:14.109Z,7.82
2022-11-04T18:15:04.927Z,6.35
2022-11-04T18:17:32.890Z,9.10
2022-11-04T18:20:18.487Z,16.65
2022-11-04T18:26:41.914Z,15.73
2022-11-04T18:32:08.752Z,9.00
2022-11-04T18:34:47.387Z,8.70
2022-11-04T18:37:16.588Z,8.13
2022-11-04T18:39:45.221Z,6.13
2022-11-04T18:42:14.076Z,6.40
2022-11-04T18:44:52.001Z,6.90
2022-11-04T18:47:20.407Z,10.15
2022-11-04T18:52:35.017Z,10.60
2022-11-04T18:55:06.275Z,12.27
2022-11-04T18:57:34.261Z,8.90
2022-11-04T19:00:10.517Z,8.02
2022-11-04T19:02:41.127Z,10.60
2022-11-04T19:05:14.249Z,9.25
2022-11-04T19:07:44.374Z,9.85
2022-11-04T19:10:15.654Z,14.90
2022-11-04T19:13:02.155Z,12.00
2022-11-04T19:15:32.174Z,23.10
2022-11-04T19:18:00.639Z,16.85
2022-11-04T19:20:29.116Z,17.50
2022-11-04T19:22:59.291Z,13.75
2022-11-04T19:25:27.760Z,16.60
2022-11-04T19:28:26.476Z,18.33
2022-11-04T19:30:57.623Z,18.63
2022-11-04T19:33:25.601Z,17.60
2022-11-04T19:35:54.691Z,14.40
2022-11-04T19:38:24.696Z,9.80
2022-11-04T19:40:55.376Z,10.57
2022-11-04T19:43:24.319Z,8.50
2022-11-04T19:46:01.386Z,11.50
2022-11-04T19:48:33.396Z,10.80
2022-11-04T19:51:01.378Z,12.50
2022-11-04T19:53:30.136Z,12.45
2022-11-04T19:55:58.669Z,14.82
2022-11-04T19:58:29.194Z,17.45
2022-11-04T20:01:08.266Z,13.43
2022-11-04T20:03:36.736Z,13.48
2022-11-04T20:06:05.318Z,12.23
2022-11-04T20:08:35.556Z,12.57
2022-11-04T20:11:04.030Z,13.10
2022-11-04T20:13:49.413Z,13.55
2022-11-04T20:16:21.952Z,11.45
2022-11-04T20:18:56.686Z,16.58
2022-11-04T20:21:26.705Z,14.05
2022-11-04T20:23:56.685Z,14.73
2022-11-04T20:26:25.907Z,13.57
2022-11-04T20:28:56.192Z,14.55
2022-11-04T20:31:27.667Z,10.65
2022-11-04T20:33:57.225Z,11.88
2022-11-04T20:36:27.625Z,13.48
2022-11-04T20:38:59.464Z,16.23
2022-11-04T20:41:27.743Z,12.05
2022-11-04T20:43:56.533Z,13.15
2022-11-04T20:46:27.776Z,10.65
2022-11-04T20:48:58.307Z,11.77
2022-11-04T20:51:28.844Z,13.82
2022-11-04T20:54:00.370Z,11.77
2022-11-04T20:56:32.274Z,15.32
2022-11-04T20:59:01.515Z,10.55
2022-11-04T21:01:35.210Z,7.95
2022-11-04T21:04:05.897Z,8.05
2022-11-04T21:06:36.892Z,7.55
2022-11-04T21:09:06.214Z,13.07
2022-11-04T21:11:35.263Z,10.40
2022-11-04T21:14:03.910Z,11.82
2022-11-04T21:16:33.577Z,13.50
2022-11-04T21:19:01.743Z,16.85
2022-11-04T21:21:30.663Z,15.55
2022-11-04T21:24:01.533Z,10.68
2022-11-04T21:26:32.128Z,13.82
2022-11-04T21:29:01.873Z,16.08
2022-11-04T21:31:34.392Z,18.80
2022-11-04T21:34:03.660Z,17.80
2022-11-04T21:36:32.319Z,15.43
2022-11-04T21:39:00.603Z,15.50
2022-11-04T21:41:34.430Z,14.68
2022-11-04T21:44:03.718Z,14.82
2022-11-04T21:46:35.614Z,15.45
2022-11-04T21:49:03.843Z,15.85
2022-11-04T21:51:34.364Z,14.77
2022-11-04T21:54:07.479Z,19.42
2022-11-04T21:56:38.790Z,19.80
2022-11-04T21:59:10.861Z,16.90
2022-11-04T22:04:10.836Z,17.58
2022-11-04T22:06:39.569Z,20.05
2022-11-04T22:09:08.708Z,16.35
2022-11-04T22:11:39.437Z,19.05
2022-11-04T22:14:12.104Z,24.00
2022-11-04T22:16:42.356Z,26.65
2022-11-04T22:19:13.616Z,32.88
2022-11-04T22:21:43.471Z,28.17
2022-11-04T22:24:12.784Z,30.55
2022-11-04T22:26:48.551Z,21.92
2022-11-04T22:29:16.967Z,24.95
2022-11-04T22:31:51.826Z,19.85
2022-11-04T22:34:21.805Z,19.40
2022-11-04T22:36:49.798Z,30.30
2022-11-04T22:39:17.680Z,19.88
2022-11-04T22:41:47.233Z,24.35
2022-11-04T22:44:15.448Z,23.80
2022-11-04T22:46:44.127Z,23.98
2022-11-04T22:49:14.519Z,18.42
2022-11-04T22:51:43.639Z,15.52
2022-11-04T22:54:12.314Z,20.63
2022-11-04T22:56:40.583Z,22.23
2022-11-04T22:59:12.309Z,20.38
2022-11-04T23:01:40.874Z,23.60
2022-11-04T23:04:12.053Z,18.27
2022-11-04T23:06:42.017Z,20.58
2022-11-04T23:09:10.953Z,26.15
2022-11-04T23:11:56.749Z,22.52
2022-11-04T23:14:43.750Z,28.35
2022-11-04T23:17:33.769Z,28.77
2022-11-04T23:20:03.010Z,21.60
2022-11-04T23:22:49.816Z,28.52
2022-11-04T23:25:18.248Z,27.20
2022-11-04T23:28:06.814Z,23.55
2022-11-04T23:30:38.587Z,26.35
2022-11-04T23:33:09.614Z,24.52
2022-11-04T23:35:59.418Z,21.17
2022-11-04T23:38:30.004Z,20.98
2022-11-04T23:41:18.428Z,18.60
2022-11-04T23:43:48.050Z,21.45
2022-11-04T23:46:41.148Z,10.95
2022-11-04T23:49:30.242Z,8.55
2022-11-04T23:52:15.930Z,8.35
2022-11-04T23:55:05.476Z,8.13
2022-11-04T23:57:53.149Z,10.57
